Three Rivers, Massachusetts
Current Conditions -  °F | °C
As of 3:58 PM on Sunday 23 Nov 2014 (Local Time) from KCEF Reporting Station
Scattered Clouds Scattered Clouds  
Wind Chill: 53°   Ceiling: Unl
Heat Index: 53°   Visibility: 10mi
Dew Point: 31°   Wind: 2mph
Humidity: 42%   Direction: 190°S
Pressure: 30.1"   Gusts: NA
Location:  42.18°N, 72.37°W
Report Text: KCEF 232058Z 19002KT 10SM SCT120 12/M01 A3010 RMK AO2A SLP200 T01171008 55004
Loading
Personal Weather Stations






























Interactive Weather Map New forecast layout! Learn more

10-Day Weather Forecast

Advertisements
Track Severe Weather on mobile